Aviation Digital Data Service (ADDS)

Output produced by METARs form (1418 UTC 31 August 2016)
found at http://aviationweather.gov/adds/metars/
 
KERI 311235Z 3113/0112 19005KT 6SM -SHRA VCTS BKN050CB OVC080 
     TEMPO 3113/3115 34010G20KT 2SM -TSRA BKN015CB OVC030 
     FM311500 20005KT P6SM VCSH SCT025 BKN035 
     TEMPO 3115/3117 BKN025 OVC035 
     FM311700 24008KT P6SM VCTS SCT030CB OVC035 
     FM312200 31010KT P6SM OVC035 
     FM010200 01015KT P6SM OVC035